Time;durP1;ratioP1;P1;durP2;ratioP2;P2;SDS_P1;SDS_P2;PMS_P1;PMS_P2;Temp;Humidity;BMP_temperature;BMP_pressure;BME280_temperature;BME280_humidity;BME280_pressure;Samples;Min_cycle;Max_cycle;Signal;HPM_P1;HPM_P2
2022/08/05 00:01:02;;;;;;;20.75;10.73;;;;;;;;;;2254392;59;21082;-77
2022/08/05 00:03:29;;;;;;;19.83;10.15;;;;;;;;;;2481858;55;21071;-80
2022/08/05 00:05:56;;;;;;;21.80;10.95;;;;;;;;;;2254014;59;21668;-78
2022/08/05 00:08:23;;;;;;;23.27;10.02;;;;;;;;;;2254283;59;21070;-77
2022/08/05 00:10:50;;;;;;;19.23;9.93;;;;;;;;;;2481752;55;21102;-79
2022/08/05 00:13:17;;;;;;;28.25;11.38;;;;;;;;;;2254389;59;21143;-77
2022/08/05 00:15:44;;;;;;;21.58;10.93;;;;;;;;;;2481465;55;21070;-79
2022/08/05 00:18:11;;;;;;;21.12;9.88;;;;;;;;;;2254307;59;21278;-79
2022/08/05 00:20:38;;;;;;;23.70;11.20;;;;;;;;;;2254519;59;21166;-80
2022/08/05 00:23:05;;;;;;;20.05;10.57;;;;;;;;;;2253603;59;21100;-77
2022/08/05 00:25:32;;;;;;;19.00;9.00;;;;;;;;;;2481196;56;21158;-77
2022/08/05 00:27:59;;;;;;;19.65;10.70;;;;;;;;;;2254295;59;21586;-80
2022/08/05 00:30:26;;;;;;;19.40;11.38;;;;;;;;;;2481540;55;21859;-78
2022/08/05 00:32:53;;;;;;;19.55;10.05;;;;;;;;;;2482229;56;21079;-78
2022/08/05 00:35:20;;;;;;;25.30;10.45;;;;;;;;;;2253923;59;21670;-78
2022/08/05 00:37:47;;;;;;;19.60;10.05;;;;;;;;;;2254554;59;21210;-78
2022/08/05 00:40:14;;;;;;;19.05;10.32;;;;;;;;;;2254174;59;21151;-77
2022/08/05 00:42:41;;;;;;;18.25;9.23;;;;;;;;;;2254249;59;21170;-78
2022/08/05 00:45:09;;;;;;;17.65;9.35;;;;;;;;;;2254540;59;21142;-78
2022/08/05 00:47:36;;;;;;;20.55;9.13;;;;;;;;;;2254002;59;21098;-78
2022/08/05 00:50:03;;;;;;;17.75;8.25;;;;;;;;;;2254736;59;21579;-78
2022/08/05 00:52:30;;;;;;;13.07;7.43;;;;;;;;;;2254486;59;21164;-77
2022/08/05 00:54:57;;;;;;;22.90;10.93;;;;;;;;;;2254461;59;21791;-78
2022/08/05 00:57:24;;;;;;;19.02;8.30;;;;;;;;;;2253334;59;21096;-77
2022/08/05 00:59:51;;;;;;;13.43;8.18;;;;;;;;;;2254424;59;21067;-78
2022/08/05 01:02:19;;;;;;;16.42;7.78;;;;;;;;;;2481601;55;21199;-80
2022/08/05 01:04:46;;;;;;;12.27;6.47;;;;;;;;;;2254059;59;21722;-78
2022/08/05 01:07:13;;;;;;;13.85;7.12;;;;;;;;;;2253992;59;21597;-80
2022/08/05 01:09:40;;;;;;;11.90;6.57;;;;;;;;;;2254336;59;21142;-77
2022/08/05 01:12:09;;;;;;;11.55;6.07;;;;;;;;;;2254319;59;21082;-79
2022/08/05 01:14:40;;;;;;;14.05;6.47;;;;;;;;;;2254184;59;21071;-79
2022/08/05 01:17:09;;;;;;;9.45;5.20;;;;;;;;;;2481385;56;21087;-78
2022/08/05 01:19:39;;;;;;;8.70;5.32;;;;;;;;;;2254379;59;21146;-79
2022/08/05 01:22:19;;;;;;;11.45;4.78;;;;;;;;;;2254254;59;21162;-79
2022/08/05 01:24:59;;;;;;;7.20;5.20;;;;;;;;;;2254112;59;21945;-81
2022/08/05 01:27:34;;;;;;;9.85;4.72;;;;;;;;;;2254080;59;21990;-81
2022/08/05 01:30:02;;;;;;;9.43;5.35;;;;;;;;;;2254020;59;21166;-78
2022/08/05 01:32:31;;;;;;;7.28;4.68;;;;;;;;;;2481720;55;21159;-78
2022/08/05 01:35:00;;;;;;;8.68;4.57;;;;;;;;;;2253874;59;21119;-80
2022/08/05 01:37:32;;;;;;;9.35;4.15;;;;;;;;;;2253205;59;21798;-79
2022/08/05 01:40:00;;;;;;;9.15;4.12;;;;;;;;;;2253668;59;21083;-79
2022/08/05 01:42:28;;;;;;;6.80;3.58;;;;;;;;;;2481419;55;21783;-77
2022/08/05 01:44:56;;;;;;;11.52;3.83;;;;;;;;;;2481678;56;21361;-79
2022/08/05 01:47:23;;;;;;;7.18;4.32;;;;;;;;;;2253899;59;21071;-79
2022/08/05 01:49:52;;;;;;;9.23;3.42;;;;;;;;;;2254242;59;21631;-78
2022/08/05 01:52:20;;;;;;;9.70;4.43;;;;;;;;;;2254229;59;21265;-79
2022/08/05 01:54:49;;;;;;;10.82;4.65;;;;;;;;;;2254223;59;21090;-78
2022/08/05 01:57:18;;;;;;;4.95;3.60;;;;;;;;;;2254077;59;21377;-79
2022/08/05 01:59:46;;;;;;;5.37;3.80;;;;;;;;;;2481449;55;21218;-77
2022/08/05 02:02:13;;;;;;;7.40;3.80;;;;;;;;;;2253579;59;21619;-78
2022/08/05 02:04:42;;;;;;;7.60;3.20;;;;;;;;;;2253990;59;21063;-79
2022/08/05 02:07:09;;;;;;;6.18;3.47;;;;;;;;;;2254268;59;21587;-78
2022/08/05 02:09:36;;;;;;;5.70;3.00;;;;;;;;;;2254454;59;21091;-79
2022/08/05 02:12:06;;;;;;;4.95;2.90;;;;;;;;;;2253707;59;21071;-79
2022/08/05 02:17:11;;;;;;;6.70;2.87;;;;;;;;;;2333816;57;28245;-77
2022/08/05 02:19:43;;;;;;;7.12;2.97;;;;;;;;;;2592556;53;21451;-78
2022/08/05 02:22:15;;;;;;;6.28;3.20;;;;;;;;;;2364119;56;21094;-77
2022/08/05 02:24:46;;;;;;;6.72;2.97;;;;;;;;;;2372910;56;21047;-77
2022/08/05 02:27:13;;;;;;;3.72;2.70;;;;;;;;;;2372815;56;21043;-78
2022/08/05 02:29:41;;;;;;;6.50;2.90;;;;;;;;;;2372766;56;21059;-77
2022/08/05 02:32:09;;;;;;;6.20;3.22;;;;;;;;;;2373129;56;21395;-77
2022/08/05 02:34:37;;;;;;;6.32;2.78;;;;;;;;;;2373118;56;21066;-78
2022/08/05 02:37:07;;;;;;;5.15;2.70;;;;;;;;;;2371974;56;21122;-77
2022/08/05 02:39:36;;;;;;;3.55;2.65;;;;;;;;;;2373192;56;21035;-77
2022/08/05 02:42:03;;;;;;;3.90;2.42;;;;;;;;;;2372899;56;21126;-77
2022/08/05 02:44:32;;;;;;;4.57;2.75;;;;;;;;;;2373199;56;21086;-77
2022/08/05 02:47:00;;;;;;;3.47;2.62;;;;;;;;;;2372993;56;21059;-78
2022/08/05 02:49:28;;;;;;;5.18;2.80;;;;;;;;;;2373369;56;21035;-77
2022/08/05 02:51:56;;;;;;;4.97;2.70;;;;;;;;;;2626474;52;21110;-78
2022/08/05 02:54:24;;;;;;;6.18;2.67;;;;;;;;;;2372369;56;21094;-77
2022/08/05 02:56:51;;;;;;;8.77;3.30;;;;;;;;;;2625406;52;21047;-77
2022/08/05 02:59:19;;;;;;;6.35;2.87;;;;;;;;;;2372461;56;21055;-78
2022/08/05 03:01:49;;;;;;;6.75;3.10;;;;;;;;;;2372753;56;21105;-77
2022/08/05 03:04:17;;;;;;;6.97;3.60;;;;;;;;;;2373587;56;21492;-77
2022/08/05 03:06:44;;;;;;;5.10;3.10;;;;;;;;;;2372427;56;22089;-77
2022/08/05 03:09:12;;;;;;;7.35;3.22;;;;;;;;;;2372967;56;21105;-77
2022/08/05 03:11:41;;;;;;;7.95;3.45;;;;;;;;;;2625978;52;21585;-77
2022/08/05 03:14:08;;;;;;;5.93;3.70;;;;;;;;;;2373160;56;21516;-76
2022/08/05 03:16:35;;;;;;;6.90;3.62;;;;;;;;;;2372654;56;21046;-78
2022/08/05 03:19:02;;;;;;;4.95;3.67;;;;;;;;;;2372144;56;21123;-78
2022/08/05 03:21:29;;;;;;;6.43;3.42;;;;;;;;;;2373272;56;21126;-78
2022/08/05 03:23:57;;;;;;;6.78;4.03;;;;;;;;;;2373302;56;21494;-78
2022/08/05 03:26:24;;;;;;;7.80;4.22;;;;;;;;;;2372330;56;21111;-77
2022/08/05 03:28:51;;;;;;;7.47;3.78;;;;;;;;;;2371784;56;21529;-77
2022/08/05 03:31:19;;;;;;;8.23;5.10;;;;;;;;;;2372225;56;21628;-77
2022/08/05 03:33:46;;;;;;;10.98;4.75;;;;;;;;;;2371425;56;21051;-78
2022/08/05 03:36:13;;;;;;;6.75;4.07;;;;;;;;;;2371179;56;21043;-78
2022/08/05 03:38:41;;;;;;;7.07;4.20;;;;;;;;;;2372366;56;21043;-77
2022/08/05 03:41:08;;;;;;;8.88;4.18;;;;;;;;;;2371279;56;21067;-77
2022/08/05 03:43:35;;;;;;;8.77;4.68;;;;;;;;;;2371725;56;21058;-77
2022/08/05 03:46:03;;;;;;;7.72;3.80;;;;;;;;;;2370880;56;21058;-77
2022/08/05 03:48:30;;;;;;;8.52;3.95;;;;;;;;;;2371945;56;21648;-77
2022/08/05 03:51:01;;;;;;;5.25;3.78;;;;;;;;;;2372091;56;21119;-77
2022/08/05 03:53:31;;;;;;;4.80;3.80;;;;;;;;;;2372561;56;21122;-77
2022/08/05 03:56:00;;;;;;;10.70;4.35;;;;;;;;;;2371349;56;21055;-78
2022/08/05 03:58:29;;;;;;;9.73;4.45;;;;;;;;;;2372668;56;21054;-78
2022/08/05 04:00:57;;;;;;;8.90;4.47;;;;;;;;;;2371637;56;21132;-77
2022/08/05 04:03:25;;;;;;;11.05;4.32;;;;;;;;;;2372707;56;21054;-77
2022/08/05 04:05:52;;;;;;;6.78;4.20;;;;;;;;;;2370717;56;21130;-77
2022/08/05 04:08:20;;;;;;;6.75;4.55;;;;;;;;;;2371600;56;21522;-76
2022/08/05 04:10:47;;;;;;;9.25;4.43;;;;;;;;;;2371825;56;21130;-77
2022/08/05 04:13:17;;;;;;;12.13;4.87;;;;;;;;;;2371229;56;22341;-77
2022/08/05 04:15:46;;;;;;;9.63;4.70;;;;;;;;;;2370960;56;21131;-77
2022/08/05 04:18:13;;;;;;;9.60;4.22;;;;;;;;;;2370861;56;21102;-77
2022/08/05 04:20:40;;;;;;;6.18;4.00;;;;;;;;;;2371268;56;21165;-78
2022/08/05 04:23:08;;;;;;;6.12;3.50;;;;;;;;;;2372106;56;21039;-76
2022/08/05 04:25:35;;;;;;;10.18;4.32;;;;;;;;;;2371953;56;21055;-77
2022/08/05 04:28:02;;;;;;;7.80;3.85;;;;;;;;;;2373066;56;21116;-77
2022/08/05 04:30:29;;;;;;;6.70;3.75;;;;;;;;;;2373306;56;21047;-77
2022/08/05 04:32:56;;;;;;;6.25;3.85;;;;;;;;;;2372974;56;21094;-77
2022/08/05 04:35:23;;;;;;;11.05;4.03;;;;;;;;;;2371891;56;21047;-77
2022/08/05 04:37:50;;;;;;;12.07;4.45;;;;;;;;;;2372786;56;21087;-77
2022/08/05 04:40:17;;;;;;;6.45;3.92;;;;;;;;;;2373204;56;21305;-77
2022/08/05 04:42:44;;;;;;;6.18;3.92;;;;;;;;;;2372802;56;21027;-77
2022/08/05 04:45:11;;;;;;;8.68;4.18;;;;;;;;;;2626413;52;21031;-77
2022/08/05 04:47:38;;;;;;;7.70;3.67;;;;;;;;;;2372775;56;21580;-77
2022/08/05 04:50:06;;;;;;;4.53;3.45;;;;;;;;;;2372419;56;21590;-77
2022/08/05 04:52:33;;;;;;;8.35;4.12;;;;;;;;;;2373196;56;21047;-77
2022/08/05 04:55:00;;;;;;;6.35;3.62;;;;;;;;;;2372884;56;21035;-78
2022/08/05 04:57:27;;;;;;;7.45;3.90;;;;;;;;;;2372967;56;21035;-77
2022/08/05 04:59:54;;;;;;;4.93;3.75;;;;;;;;;;2373554;56;21094;-78
2022/08/05 05:02:21;;;;;;;8.73;4.62;;;;;;;;;;2372998;56;21019;-78
2022/08/05 05:04:48;;;;;;;7.25;4.05;;;;;;;;;;2373766;56;21193;-77
2022/08/05 05:07:16;;;;;;;8.55;4.55;;;;;;;;;;2371186;56;21059;-76
2022/08/05 05:09:43;;;;;;;7.68;4.10;;;;;;;;;;2372932;56;21082;-77
2022/08/05 05:12:10;;;;;;;5.15;3.92;;;;;;;;;;2373096;56;21783;-78
2022/08/05 05:14:37;;;;;;;6.87;3.95;;;;;;;;;;2373070;56;21620;-77
2022/08/05 05:17:04;;;;;;;7.32;4.32;;;;;;;;;;2371246;56;21043;-77
2022/08/05 05:19:31;;;;;;;10.73;5.20;;;;;;;;;;2371763;56;21094;-77
2022/08/05 05:21:58;;;;;;;7.12;4.62;;;;;;;;;;2371653;56;21614;-76
2022/08/05 05:24:25;;;;;;;14.05;5.78;;;;;;;;;;2372505;56;21046;-77
2022/08/05 05:26:52;;;;;;;7.05;4.90;;;;;;;;;;2371714;56;21905;-77
2022/08/05 05:29:19;;;;;;;5.95;4.60;;;;;;;;;;2372214;56;21616;-77
2022/08/05 05:31:47;;;;;;;7.30;4.72;;;;;;;;;;2373631;56;21039;-77
2022/08/05 05:34:14;;;;;;;6.25;4.55;;;;;;;;;;2373461;56;22159;-77
2022/08/05 05:36:41;;;;;;;6.82;4.50;;;;;;;;;;2438184;54;21062;-76
2022/08/05 05:39:08;;;;;;;6.72;5.18;;;;;;;;;;2302849;58;21193;-75
2022/08/05 05:41:35;;;;;;;7.50;5.18;;;;;;;;;;2301808;58;21058;-75
2022/08/05 05:44:02;;;;;;;5.72;3.87;;;;;;;;;;2300067;58;21062;-75
2022/08/05 05:46:29;;;;;;;7.43;4.40;;;;;;;;;;2300685;58;21043;-75
2022/08/05 05:48:56;;;;;;;8.13;4.60;;;;;;;;;;2301416;58;21054;-76
2022/08/05 05:51:24;;;;;;;7.32;4.47;;;;;;;;;;2537959;54;21071;-74
2022/08/05 05:53:52;;;;;;;8.65;5.60;;;;;;;;;;2300700;58;21351;-73
2022/08/05 05:56:19;;;;;;;8.38;4.55;;;;;;;;;;2299198;58;21178;-76
2022/08/05 05:58:47;;;;;;;8.90;4.65;;;;;;;;;;2301204;58;21121;-75
2022/08/05 06:01:14;;;;;;;7.93;4.95;;;;;;;;;;2300794;58;21066;-74
2022/08/05 06:03:41;;;;;;;10.52;5.00;;;;;;;;;;2301169;58;21107;-75
2022/08/05 06:06:08;;;;;;;5.87;4.45;;;;;;;;;;2300636;58;21137;-73
2022/08/05 06:08:35;;;;;;;9.70;4.60;;;;;;;;;;2538573;54;21051;-76
2022/08/05 06:11:02;;;;;;;9.95;5.32;;;;;;;;;;2301107;58;21596;-73
2022/08/05 06:13:29;;;;;;;6.97;4.05;;;;;;;;;;2300904;58;21058;-75
2022/08/05 06:15:56;;;;;;;10.90;5.18;;;;;;;;;;2300379;58;21141;-76
2022/08/05 06:18:23;;;;;;;6.55;4.68;;;;;;;;;;2301383;58;21066;-76
2022/08/05 06:20:50;;;;;;;7.12;4.45;;;;;;;;;;2538464;54;21524;-76
2022/08/05 06:23:17;;;;;;;8.30;4.35;;;;;;;;;;2299301;58;21126;-75
2022/08/05 06:25:45;;;;;;;8.40;4.93;;;;;;;;;;2298898;58;21071;-76
2022/08/05 06:28:12;;;;;;;6.05;4.12;;;;;;;;;;2298490;58;21193;-76
2022/08/05 06:30:39;;;;;;;8.40;4.57;;;;;;;;;;2297750;58;21548;-72
2022/08/05 06:33:06;;;;;;;4.93;3.90;;;;;;;;;;2535960;54;21062;-74
2022/08/05 06:35:33;;;;;;;10.02;4.40;;;;;;;;;;2534692;54;21183;-74
2022/08/05 06:38:00;;;;;;;8.45;4.82;;;;;;;;;;2298498;58;21127;-76
2022/08/05 06:40:27;;;;;;;7.12;4.72;;;;;;;;;;2300572;58;21141;-76
2022/08/05 06:42:54;;;;;;;7.07;4.85;;;;;;;;;;2296967;58;21070;-73
2022/08/05 06:45:21;;;;;;;9.23;4.22;;;;;;;;;;2297732;58;21070;-75
2022/08/05 06:47:48;;;;;;;7.75;4.00;;;;;;;;;;2297567;58;21411;-73
2022/08/05 06:50:16;;;;;;;11.50;5.65;;;;;;;;;;2300290;58;21046;-75
2022/08/05 06:52:43;;;;;;;9.65;5.05;;;;;;;;;;2300121;58;21066;-75
2022/08/05 06:55:10;;;;;;;6.47;4.60;;;;;;;;;;2297814;58;21664;-74
2022/08/05 06:57:37;;;;;;;8.57;5.55;;;;;;;;;;2299411;58;21042;-75
2022/08/05 07:00:05;;;;;;;7.40;4.55;;;;;;;;;;2300053;58;21060;-75
2022/08/05 07:02:32;;;;;;;10.48;5.10;;;;;;;;;;2299640;58;21165;-73
2022/08/05 07:04:59;;;;;;;7.75;4.50;;;;;;;;;;2297598;58;21751;-76
2022/08/05 07:07:26;;;;;;;9.98;5.00;;;;;;;;;;2298505;58;21106;-72
2022/08/05 07:09:54;;;;;;;5.68;4.43;;;;;;;;;;2297977;58;21058;-74
2022/08/05 07:17:59;;;;;;;10.07;5.12;;;;;;;;;;2298189;58;20990;-75
2022/08/05 07:20:26;;;;;;;7.37;4.43;;;;;;;;;;2299162;58;21141;-76
2022/08/05 07:22:53;;;;;;;10.07;5.60;;;;;;;;;;2299892;58;21716;-74
2022/08/05 07:25:20;;;;;;;8.60;5.28;;;;;;;;;;2297291;58;21082;-79
2022/08/05 07:27:47;;;;;;;11.02;5.53;;;;;;;;;;2297526;58;21070;-72
2022/08/05 07:30:14;;;;;;;7.55;5.05;;;;;;;;;;2533428;54;21043;-76
2022/08/05 07:32:41;;;;;;;11.68;5.97;;;;;;;;;;2535453;54;21063;-76
2022/08/05 07:35:09;;;;;;;6.55;5.05;;;;;;;;;;2536731;54;21114;-73
2022/08/05 07:37:36;;;;;;;7.12;4.93;;;;;;;;;;2299749;58;21051;-73
2022/08/05 07:40:03;;;;;;;10.82;5.65;;;;;;;;;;2299857;58;21051;-76
2022/08/05 07:42:30;;;;;;;9.23;5.80;;;;;;;;;;2299081;58;21068;-75
2022/08/05 07:44:58;;;;;;;7.43;5.07;;;;;;;;;;2536944;54;21030;-74
2022/08/05 07:47:25;;;;;;;10.93;5.18;;;;;;;;;;2301097;58;21059;-75
2022/08/05 07:49:52;;;;;;;7.62;4.78;;;;;;;;;;2301669;58;21069;-76
2022/08/05 07:52:19;;;;;;;8.18;5.00;;;;;;;;;;2301400;58;21042;-76
2022/08/05 07:54:46;;;;;;;8.00;4.65;;;;;;;;;;2300248;58;21042;-72
2022/08/05 07:57:13;;;;;;;6.62;4.90;;;;;;;;;;2537081;54;21106;-75
2022/08/05 07:59:40;;;;;;;6.18;5.12;;;;;;;;;;2300187;58;21102;-76
2022/08/05 08:02:09;;;;;;;8.98;5.15;;;;;;;;;;2300578;58;21126;-75
2022/08/05 08:04:36;;;;;;;4.87;4.05;;;;;;;;;;2300851;58;21070;-75
2022/08/05 08:07:03;;;;;;;6.45;4.65;;;;;;;;;;2300125;58;21062;-76
2022/08/05 08:09:30;;;;;;;7.93;4.97;;;;;;;;;;2300768;58;21074;-75
2022/08/05 08:11:57;;;;;;;6.80;4.45;;;;;;;;;;2300238;58;21059;-76
2022/08/05 08:14:24;;;;;;;7.85;4.50;;;;;;;;;;2536548;54;21073;-75
2022/08/05 08:16:51;;;;;;;8.18;4.72;;;;;;;;;;2300497;58;21121;-76
2022/08/05 08:19:18;;;;;;;6.57;4.35;;;;;;;;;;2300579;58;21077;-73
2022/08/05 08:21:45;;;;;;;8.55;4.72;;;;;;;;;;2299690;58;21105;-76
2022/08/05 08:24:12;;;;;;;7.18;3.97;;;;;;;;;;2537616;54;21607;-74
2022/08/05 08:26:40;;;;;;;8.93;4.75;;;;;;;;;;2300396;58;21623;-76
2022/08/05 08:29:07;;;;;;;9.20;5.22;;;;;;;;;;2535726;54;22208;-75
2022/08/05 08:31:34;;;;;;;8.30;4.75;;;;;;;;;;2299983;58;21066;-76
2022/08/05 08:34:01;;;;;;;5.57;4.68;;;;;;;;;;2300034;58;21427;-76
2022/08/05 08:36:28;;;;;;;7.03;4.37;;;;;;;;;;2300238;58;21182;-75
2022/08/05 08:38:55;;;;;;;8.15;5.57;;;;;;;;;;2301517;58;21042;-76
2022/08/05 08:41:23;;;;;;;7.62;4.40;;;;;;;;;;2301787;58;21062;-75
2022/08/05 08:43:50;;;;;;;8.80;4.65;;;;;;;;;;2301892;58;21118;-73
2022/08/05 08:46:17;;;;;;;9.00;4.82;;;;;;;;;;2537476;54;21126;-76
2022/08/05 08:48:46;;;;;;;5.12;4.12;;;;;;;;;;2301172;58;21601;-75
2022/08/05 08:51:13;;;;;;;5.97;4.43;;;;;;;;;;2300706;58;21054;-76
2022/08/05 08:53:40;;;;;;;6.57;3.80;;;;;;;;;;2301717;58;21066;-74
2022/08/05 08:56:08;;;;;;;7.47;4.37;;;;;;;;;;2301298;58;21054;-76
2022/08/05 08:58:35;;;;;;;9.07;5.00;;;;;;;;;;2539098;54;21058;-75
2022/08/05 09:01:02;;;;;;;8.35;5.25;;;;;;;;;;2301546;58;21086;-75
2022/08/05 09:03:29;;;;;;;10.63;6.40;;;;;;;;;;2300400;58;21055;-73
2022/08/05 09:05:57;;;;;;;12.75;5.43;;;;;;;;;;2538517;54;21106;-75
2022/08/05 09:08:24;;;;;;;7.75;4.15;;;;;;;;;;2300450;58;21062;-75
2022/08/05 09:10:52;;;;;;;5.62;4.32;;;;;;;;;;2538865;54;21042;-76
2022/08/05 09:13:19;;;;;;;6.72;4.50;;;;;;;;;;2301634;58;21034;-76
2022/08/05 09:15:46;;;;;;;8.32;4.30;;;;;;;;;;2301030;58;21066;-75
2022/08/05 09:18:13;;;;;;;8.70;4.62;;;;;;;;;;2301447;58;21042;-76
2022/08/05 09:20:43;;;;;;;5.28;4.28;;;;;;;;;;2538179;54;21146;-75
2022/08/05 09:23:11;;;;;;;5.25;4.10;;;;;;;;;;2539131;54;21102;-76
2022/08/05 09:25:40;;;;;;;5.43;4.15;;;;;;;;;;2301036;58;21319;-73
2022/08/05 09:28:10;;;;;;;7.50;4.20;;;;;;;;;;2301639;58;21652;-72
2022/08/05 09:30:37;;;;;;;6.50;4.57;;;;;;;;;;2301374;58;21205;-76
2022/08/05 09:33:05;;;;;;;6.10;4.18;;;;;;;;;;2301670;58;21047;-76
2022/08/05 09:35:32;;;;;;;8.63;5.57;;;;;;;;;;2300571;58;21082;-76
2022/08/05 09:37:59;;;;;;;7.28;5.10;;;;;;;;;;2300827;58;21126;-75
2022/08/05 09:40:30;;;;;;;8.13;4.80;;;;;;;;;;2300448;58;21058;-76
2022/08/05 09:42:58;;;;;;;8.35;4.70;;;;;;;;;;2300173;58;21054;-72
2022/08/05 09:45:35;;;;;;;5.87;4.72;;;;;;;;;;2297853;58;21054;-73
2022/08/05 09:48:18;;;;;;;5.95;4.37;;;;;;;;;;2298892;58;21683;-72
2022/08/05 09:50:49;;;;;;;8.43;5.62;;;;;;;;;;2299337;58;21046;-75
2022/08/05 09:53:16;;;;;;;8.63;4.78;;;;;;;;;;2299912;58;21118;-76
2022/08/05 09:55:43;;;;;;;7.40;4.95;;;;;;;;;;2299476;58;21075;-76
2022/08/05 09:58:10;;;;;;;6.93;4.65;;;;;;;;;;2299692;58;22486;-76
2022/08/05 10:00:38;;;;;;;8.50;5.03;;;;;;;;;;2300324;58;21141;-75
2022/08/05 10:03:09;;;;;;;6.18;4.75;;;;;;;;;;2299981;58;21122;-76
2022/08/05 10:05:36;;;;;;;6.93;4.37;;;;;;;;;;2299909;58;21050;-75
2022/08/05 10:08:05;;;;;;;7.32;4.90;;;;;;;;;;2300019;58;21082;-73
2022/08/05 10:10:32;;;;;;;10.30;4.07;;;;;;;;;;2298984;58;21063;-75
2022/08/05 10:13:01;;;;;;;8.30;5.22;;;;;;;;;;2299668;58;21138;-72
2022/08/05 10:15:29;;;;;;;6.22;4.30;;;;;;;;;;2299388;58;21059;-75
2022/08/05 10:18:16;;;;;;;5.40;4.18;;;;;;;;;;2299706;58;21066;-74
2022/08/05 10:20:44;;;;;;;8.40;4.40;;;;;;;;;;2300376;58;21098;-76
2022/08/05 10:23:13;;;;;;;9.07;4.97;;;;;;;;;;2301266;58;21078;-79
2022/08/05 10:25:40;;;;;;;7.28;4.50;;;;;;;;;;2539340;54;21779;-77
2022/08/05 10:28:09;;;;;;;7.50;4.37;;;;;;;;;;2538447;54;21589;-76
2022/08/05 10:30:36;;;;;;;6.80;4.47;;;;;;;;;;2299846;58;21054;-76
2022/08/05 10:33:04;;;;;;;8.40;4.85;;;;;;;;;;2537418;54;21050;-75
2022/08/05 10:35:31;;;;;;;6.97;4.53;;;;;;;;;;2300937;58;21150;-73
2022/08/05 10:37:59;;;;;;;8.25;4.65;;;;;;;;;;2300637;58;21054;-74
2022/08/05 10:40:29;;;;;;;9.50;4.72;;;;;;;;;;2301557;58;21114;-76
2022/08/05 10:43:00;;;;;;;7.68;4.57;;;;;;;;;;2301203;58;21034;-76
2022/08/05 10:45:29;;;;;;;6.53;4.50;;;;;;;;;;2300411;58;21058;-76
2022/08/05 10:47:56;;;;;;;7.68;4.40;;;;;;;;;;2300610;58;21070;-75
2022/08/05 10:50:23;;;;;;;8.38;4.40;;;;;;;;;;2301488;58;21624;-76
2022/08/05 10:52:56;;;;;;;7.32;4.50;;;;;;;;;;2301758;58;21063;-75
2022/08/05 10:55:23;;;;;;;6.45;4.80;;;;;;;;;;2301046;58;21149;-76
2022/08/05 10:58:07;;;;;;;7.85;4.00;;;;;;;;;;2539160;54;21051;-75
2022/08/05 11:00:34;;;;;;;6.70;4.20;;;;;;;;;;2300872;58;21054;-76
2022/08/05 11:03:13;;;;;;;5.65;4.35;;;;;;;;;;2539089;54;21234;-76
2022/08/05 11:05:40;;;;;;;6.68;4.25;;;;;;;;;;2301686;58;21134;-76
2022/08/05 11:08:08;;;;;;;8.75;5.32;;;;;;;;;;2302015;58;21066;-74
2022/08/05 11:10:36;;;;;;;7.45;3.78;;;;;;;;;;2301040;58;21050;-76
2022/08/05 11:13:04;;;;;;;8.60;4.40;;;;;;;;;;2301604;58;21591;-75
2022/08/05 11:15:33;;;;;;;7.80;4.35;;;;;;;;;;2300903;58;21074;-76
2022/08/05 11:18:07;;;;;;;5.10;4.18;;;;;;;;;;2301296;58;21066;-75
2022/08/05 11:20:36;;;;;;;7.15;4.00;;;;;;;;;;2301919;58;21138;-74
2022/08/05 11:23:22;;;;;;;4.70;3.35;;;;;;;;;;2301174;58;21109;-75
2022/08/05 11:26:01;;;;;;;5.05;3.20;;;;;;;;;;2301138;58;21062;-75
2022/08/05 11:28:38;;;;;;;6.53;3.87;;;;;;;;;;2301748;58;21050;-76
2022/08/05 11:31:26;;;;;;;6.32;3.47;;;;;;;;;;2539281;54;21117;-75
2022/08/05 11:33:54;;;;;;;4.50;3.58;;;;;;;;;;2300611;58;21066;-75
2022/08/05 11:36:38;;;;;;;6.50;4.12;;;;;;;;;;2304326;54;21106;-77
2022/08/05 11:39:04;;;;;;;;;;;;;;;;;;2247698;60;21153;-78
2022/08/05 11:41:33;;;;;;;7.07;4.03;;;;;;;;;;2254280;59;20140;-77
2022/08/05 11:44:02;;;;;;;6.65;4.12;;;;;;;;;;2270547;59;21070;-76
2022/08/05 11:46:29;;;;;;;5.12;3.20;;;;;;;;;;2269702;59;21115;-76
2022/08/05 11:48:57;;;;;;;7.43;3.45;;;;;;;;;;2269275;59;21062;-77
2022/08/05 11:51:26;;;;;;;7.18;3.33;;;;;;;;;;2268905;59;21126;-77
2022/08/05 11:53:53;;;;;;;6.32;3.15;;;;;;;;;;2500907;55;21074;-77
2022/08/05 11:56:21;;;;;;;5.57;2.97;;;;;;;;;;2269456;59;21102;-77
2022/08/05 11:58:48;;;;;;;5.43;2.75;;;;;;;;;;2270110;59;21292;-77
2022/08/05 12:01:17;;;;;;;4.00;2.60;;;;;;;;;;2269955;59;21083;-77
2022/08/05 12:03:45;;;;;;;3.60;2.50;;;;;;;;;;2270237;59;21108;-77
2022/08/05 12:06:13;;;;;;;5.32;2.35;;;;;;;;;;2269448;59;21154;-78
2022/08/05 12:08:42;;;;;;;5.10;3.03;;;;;;;;;;2269294;59;21090;-77
2022/08/05 12:11:10;;;;;;;3.97;2.47;;;;;;;;;;2270155;59;21138;-77
2022/08/05 12:13:38;;;;;;;3.65;2.37;;;;;;;;;;2269104;59;21082;-78
2022/08/05 12:16:08;;;;;;;4.20;2.10;;;;;;;;;;2269544;59;21234;-77
2022/08/05 12:18:36;;;;;;;4.00;2.47;;;;;;;;;;2270173;59;21075;-79
2022/08/05 12:21:09;;;;;;;6.65;2.70;;;;;;;;;;2269386;59;21106;-77
2022/08/05 12:23:37;;;;;;;4.07;2.20;;;;;;;;;;2270084;59;21699;-76
2022/08/05 12:26:04;;;;;;;3.40;1.80;;;;;;;;;;2500503;55;21066;-76
2022/08/05 12:28:31;;;;;;;7.35;1.92;;;;;;;;;;2269296;59;21059;-77
2022/08/05 12:30:59;;;;;;;5.28;2.30;;;;;;;;;;2270164;59;21086;-77
2022/08/05 12:33:27;;;;;;;5.55;2.47;;;;;;;;;;2270090;59;21063;-76
2022/08/05 12:38:29;;;;;;;4.03;2.47;;;;;;;;;;2335042;57;27805;-77
2022/08/05 12:40:57;;;;;;;2.30;1.85;;;;;;;;;;2350954;56;21102;-76
2022/08/05 12:43:24;;;;;;;3.45;2.05;;;;;;;;;;2626862;52;21604;-80
2022/08/05 12:45:51;;;;;;;3.55;1.90;;;;;;;;;;2373578;56;21055;-79
2022/08/05 12:48:19;;;;;;;3.60;2.10;;;;;;;;;;2374448;56;21170;-83
2022/08/05 12:51:05;;;;;;;4.57;1.92;;;;;;;;;;2374758;56;21105;-81
2022/08/05 12:53:32;;;;;;;4.47;1.90;;;;;;;;;;2374083;56;21130;-80
2022/08/05 12:55:59;;;;;;;6.43;2.10;;;;;;;;;;2374303;56;21537;-81
2022/08/05 12:58:26;;;;;;;3.42;2.00;;;;;;;;;;2374883;56;21134;-81
2022/08/05 13:00:53;;;;;;;2.92;1.50;;;;;;;;;;2375579;56;21054;-80
2022/08/05 13:03:21;;;;;;;1.42;1.33;;;;;;;;;;2374687;56;21055;-82
2022/08/05 13:05:48;;;;;;;2.72;1.62;;;;;;;;;;2372085;56;21018;-79
2022/08/05 13:08:18;;;;;;;2.50;1.70;;;;;;;;;;2374070;56;21187;-81
2022/08/05 13:10:45;;;;;;;2.58;1.62;;;;;;;;;;2374423;56;21117;-80
2022/08/05 13:13:12;;;;;;;4.95;1.67;;;;;;;;;;2375066;56;21077;-80
2022/08/05 13:15:40;;;;;;;4.82;1.55;;;;;;;;;;2374294;56;21174;-81
2022/08/05 13:18:07;;;;;;;2.55;1.85;;;;;;;;;;2375244;56;21106;-80
2022/08/05 13:20:34;;;;;;;2.40;1.50;;;;;;;;;;2373962;56;21059;-80
2022/08/05 13:23:02;;;;;;;3.67;1.87;;;;;;;;;;2374652;56;21058;-83
2022/08/05 13:25:29;;;;;;;1.15;1.08;;;;;;;;;;2372538;56;21042;-80
2022/08/05 13:27:56;;;;;;;2.67;1.70;;;;;;;;;;2374549;56;21313;-84
2022/08/05 13:30:24;;;;;;;5.60;1.48;;;;;;;;;;2373819;56;21042;-78
2022/08/05 13:32:51;;;;;;;3.50;1.30;;;;;;;;;;2374330;56;21039;-79
2022/08/05 13:35:19;;;;;;;2.15;1.42;;;;;;;;;;2371290;56;21146;-85
2022/08/05 13:37:46;;;;;;;3.53;1.60;;;;;;;;;;2372795;56;21054;-77
2022/08/05 13:40:13;;;;;;;3.00;0.98;;;;;;;;;;2373992;56;21178;-80
2022/08/05 13:42:42;;;;;;;2.25;1.00;;;;;;;;;;2627278;52;21122;-80
2022/08/05 13:45:11;;;;;;;2.75;1.00;;;;;;;;;;2372823;56;21046;-80
2022/08/05 13:47:38;;;;;;;2.78;0.95;;;;;;;;;;2374056;56;21759;-77
2022/08/05 13:50:06;;;;;;;1.98;1.27;;;;;;;;;;2373617;56;21529;-78
2022/08/05 13:52:33;;;;;;;1.48;1.23;;;;;;;;;;2373119;56;21059;-79
2022/08/05 13:55:00;;;;;;;2.90;1.20;;;;;;;;;;2373202;56;21114;-80
2022/08/05 13:57:27;;;;;;;2.80;1.10;;;;;;;;;;2372685;56;21019;-83
2022/08/05 13:59:54;;;;;;;2.62;1.48;;;;;;;;;;2373481;56;21115;-79
2022/08/05 14:02:22;;;;;;;3.42;1.67;;;;;;;;;;2373323;56;21585;-79
2022/08/05 14:07:37;;;;;;;2.40;0.95;;;;;;;;;;2372565;56;21353;-78
2022/08/05 14:10:05;;;;;;;2.45;0.93;;;;;;;;;;2373178;56;21035;-82
2022/08/05 14:12:32;;;;;;;1.23;1.00;;;;;;;;;;2372915;56;21542;-78
2022/08/05 14:14:59;;;;;;;5.50;1.25;;;;;;;;;;2372491;56;21047;-82
2022/08/05 14:17:26;;;;;;;3.20;1.10;;;;;;;;;;2371864;56;21105;-79
2022/08/05 14:19:53;;;;;;;1.90;0.70;;;;;;;;;;2373549;56;21660;-81
2022/08/05 14:22:20;;;;;;;1.75;0.70;;;;;;;;;;2625649;52;21023;-79
2022/08/05 14:24:47;;;;;;;1.12;0.60;;;;;;;;;;2372905;56;21121;-82
2022/08/05 14:27:14;;;;;;;2.53;0.75;;;;;;;;;;2372525;56;21118;-78
2022/08/05 14:29:42;;;;;;;1.90;1.02;;;;;;;;;;2373268;56;22211;-77
2022/08/05 14:32:09;;;;;;;3.40;1.00;;;;;;;;;;2372378;56;21561;-80
2022/08/05 14:34:36;;;;;;;2.85;1.10;;;;;;;;;;2372973;56;21055;-84
2022/08/05 14:37:03;;;;;;;2.87;0.85;;;;;;;;;;2319012;56;21565;-80
2022/08/05 14:39:31;;;;;;;3.08;1.02;;;;;;;;;;2374237;56;21118;-80
2022/08/05 14:41:58;;;;;;;2.10;0.95;;;;;;;;;;2374330;56;21063;-78
2022/08/05 14:44:25;;;;;;;1.50;0.80;;;;;;;;;;2374083;56;21059;-79
2022/08/05 14:46:52;;;;;;;1.02;0.90;;;;;;;;;;2373510;56;21098;-78
2022/08/05 14:49:19;;;;;;;1.65;0.80;;;;;;;;;;2374144;56;21110;-77
2022/08/05 14:51:46;;;;;;;4.30;1.20;;;;;;;;;;2374074;56;21095;-77
2022/08/05 14:54:13;;;;;;;2.83;1.10;;;;;;;;;;2373033;56;21123;-77
2022/08/05 14:56:40;;;;;;;2.85;1.37;;;;;;;;;;2373492;56;21137;-79
2022/08/05 14:59:07;;;;;;;3.03;1.90;;;;;;;;;;2374365;56;21090;-78